createdAt,value
2022-10-09T00:01:52.460Z,11.28
2022-10-09T00:04:22.265Z,11.29
2022-10-09T00:06:54.653Z,11.28
2022-10-09T00:09:24.422Z,11.26
2022-10-09T00:11:54.279Z,11.25
2022-10-09T00:14:24.010Z,11.23
2022-10-09T00:16:53.830Z,11.23
2022-10-09T00:19:23.659Z,11.22
2022-10-09T00:21:56.021Z,11.20
2022-10-09T00:24:25.845Z,11.18
2022-10-09T00:26:55.582Z,11.16
2022-10-09T00:29:25.509Z,11.15
2022-10-09T00:31:55.285Z,11.14
2022-10-09T00:34:25.001Z,11.12
2022-10-09T00:36:57.338Z,11.11
2022-10-09T00:39:27.077Z,11.09
2022-10-09T00:41:56.784Z,11.09
2022-10-09T00:44:52.993Z,11.10
2022-10-09T00:47:28.182Z,11.08
2022-10-09T00:50:02.804Z,11.07
2022-10-09T00:52:35.638Z,11.07
2022-10-09T00:55:07.040Z,11.04
2022-10-09T00:57:37.342Z,11.03
2022-10-09T01:00:12.620Z,11.01
2022-10-09T01:02:42.805Z,10.99
2022-10-09T01:05:16.933Z,10.97
2022-10-09T01:07:55.597Z,10.98
2022-10-09T01:10:32.283Z,10.96
2022-10-09T01:13:09.441Z,10.94
2022-10-09T01:15:47.288Z,10.94
2022-10-09T01:18:25.100Z,10.93
2022-10-09T01:20:57.631Z,10.92
2022-10-09T01:23:51.073Z,10.92
2022-10-09T01:26:34.514Z,10.91
2022-10-09T01:29:10.927Z,10.90
2022-10-09T01:31:44.730Z,10.88
2022-10-09T01:34:16.392Z,10.87
2022-10-09T01:36:47.674Z,10.86
2022-10-09T01:39:20.297Z,10.83
2022-10-09T01:41:51.806Z,10.82
2022-10-09T01:44:25.653Z,10.81
2022-10-09T01:46:56.109Z,10.79
2022-10-09T01:49:42.108Z,10.77
2022-10-09T01:52:23.401Z,10.75
2022-10-09T01:55:03.830Z,10.74
2022-10-09T01:57:43.185Z,10.71
2022-10-09T02:00:16.793Z,10.69
2022-10-09T02:02:48.186Z,10.65
2022-10-09T02:05:22.125Z,10.63
2022-10-09T02:07:52.193Z,10.61
2022-10-09T02:10:24.369Z,10.56
2022-10-09T02:12:58.097Z,10.54
2022-10-09T02:15:34.368Z,10.53
2022-10-09T02:18:11.201Z,10.49
2022-10-09T02:20:47.301Z,10.47
2022-10-09T02:23:19.960Z,10.44
2022-10-09T02:25:49.762Z,10.43
2022-10-09T02:28:19.753Z,10.42
2022-10-09T02:30:58.643Z,10.42
2022-10-09T02:33:34.591Z,10.39
2022-10-09T02:36:04.926Z,10.38
2022-10-09T02:38:34.706Z,10.35
2022-10-09T02:41:05.025Z,10.35
2022-10-09T02:43:34.774Z,10.35
2022-10-09T02:46:07.237Z,10.34
2022-10-09T02:48:37.109Z,10.35
2022-10-09T02:51:07.074Z,10.33
2022-10-09T02:53:36.874Z,10.33
2022-10-09T02:56:06.670Z,10.33
2022-10-09T02:58:38.476Z,10.32
2022-10-09T03:01:10.815Z,10.30
2022-10-09T03:03:40.791Z,10.27
2022-10-09T03:06:12.801Z,10.27
2022-10-09T03:08:45.263Z,10.25
2022-10-09T03:11:16.892Z,10.21
2022-10-09T03:13:47.141Z,10.19
2022-10-09T03:16:21.462Z,10.16
2022-10-09T03:18:52.241Z,10.14
2022-10-09T03:21:23.509Z,10.12
2022-10-09T03:23:53.768Z,10.11
2022-10-09T03:26:25.248Z,10.08
2022-10-09T03:28:56.433Z,10.04
2022-10-09T03:34:19.821Z,9.97
2022-10-09T03:36:49.622Z,9.95
2022-10-09T03:39:19.322Z,9.91
2022-10-09T03:41:49.080Z,9.89
2022-10-09T03:44:18.792Z,9.85
2022-10-09T03:46:52.693Z,9.83
2022-10-09T03:49:22.490Z,9.79
2022-10-09T03:51:52.232Z,9.77
2022-10-09T03:54:21.975Z,9.74
2022-10-09T03:56:51.701Z,9.72
2022-10-09T03:59:21.438Z,9.68
2022-10-09T04:01:53.837Z,9.66
2022-10-09T04:04:23.576Z,9.65
2022-10-09T04:06:53.325Z,9.61
2022-10-09T04:09:23.037Z,9.59
2022-10-09T04:11:52.777Z,9.54
2022-10-09T04:14:22.534Z,9.53
2022-10-09T04:16:54.839Z,9.49
2022-10-09T04:19:24.745Z,9.47
2022-10-09T04:21:54.487Z,9.44
2022-10-09T04:24:24.178Z,9.41
2022-10-09T04:26:54.039Z,9.38
2022-10-09T04:29:23.879Z,9.37
2022-10-09T04:31:56.230Z,9.36
2022-10-09T04:34:26.371Z,9.34
2022-10-09T04:36:56.079Z,9.32
2022-10-09T04:39:25.814Z,9.31
2022-10-09T04:41:55.535Z,9.28
2022-10-09T04:44:25.298Z,9.28
2022-10-09T04:46:57.808Z,9.27
2022-10-09T04:49:27.582Z,9.25
2022-10-09T04:51:57.314Z,9.25
2022-10-09T04:54:27.050Z,9.23
2022-10-09T04:56:56.846Z,9.22
2022-10-09T04:59:26.587Z,9.21
2022-10-09T05:01:59.065Z,9.19
2022-10-09T05:04:28.950Z,9.19
2022-10-09T05:06:58.716Z,9.16
2022-10-09T05:09:28.586Z,9.15
2022-10-09T05:11:58.374Z,9.14
2022-10-09T05:14:28.189Z,9.13
2022-10-09T05:17:23.144Z,9.13
2022-10-09T05:19:53.331Z,9.12
2022-10-09T05:22:23.058Z,9.10
2022-10-09T05:24:52.842Z,9.09
2022-10-09T05:27:22.595Z,9.09
2022-10-09T05:29:52.324Z,9.10
2022-10-09T05:32:24.706Z,9.08
2022-10-09T05:34:54.443Z,9.07
2022-10-09T05:37:24.151Z,9.06
2022-10-09T05:39:53.854Z,9.06
2022-10-09T05:42:23.594Z,9.03
2022-10-09T05:44:53.323Z,9.03
2022-10-09T05:47:25.781Z,9.02
2022-10-09T05:49:55.534Z,9.00
2022-10-09T05:52:25.264Z,8.99
2022-10-09T05:54:57.027Z,8.97
2022-10-09T05:57:26.740Z,8.96
2022-10-09T05:59:56.462Z,8.96
2022-10-09T06:02:28.885Z,8.96
2022-10-09T06:04:58.860Z,8.95
2022-10-09T06:07:28.602Z,8.94
2022-10-09T06:09:58.346Z,8.94
2022-10-09T06:12:28.077Z,8.95
2022-10-09T06:14:57.971Z,8.94
2022-10-09T06:17:30.354Z,8.94
2022-10-09T06:20:00.131Z,8.93
2022-10-09T06:22:29.920Z,8.92
2022-10-09T06:24:59.676Z,8.92
2022-10-09T06:27:30.620Z,8.91
2022-10-09T06:30:01.279Z,8.91
2022-10-09T06:32:33.704Z,8.93
2022-10-09T06:35:03.469Z,8.94
2022-10-09T06:37:33.212Z,8.94
2022-10-09T06:40:03.000Z,8.98
2022-10-09T06:42:32.954Z,8.98
2022-10-09T06:45:02.727Z,9.01
2022-10-09T06:47:35.165Z,9.03
2022-10-09T06:50:04.919Z,9.05
2022-10-09T06:52:34.916Z,9.08
2022-10-09T06:55:04.646Z,9.12
2022-10-09T06:57:34.719Z,9.15
2022-10-09T07:00:04.545Z,9.17
2022-10-09T07:02:43.179Z,9.20
2022-10-09T07:05:13.779Z,9.23
2022-10-09T07:07:43.957Z,9.26
2022-10-09T07:10:13.839Z,9.28
2022-10-09T07:12:43.580Z,9.31
2022-10-09T07:15:14.127Z,9.34
2022-10-09T07:17:46.486Z,9.39
2022-10-09T07:20:16.210Z,9.41
2022-10-09T07:22:46.320Z,9.44
2022-10-09T07:25:16.432Z,9.48
2022-10-09T07:27:46.244Z,9.53
2022-10-09T07:30:16.320Z,9.56
2022-10-09T07:32:49.034Z,9.61
2022-10-09T07:35:19.239Z,9.66
2022-10-09T07:37:48.968Z,9.71
2022-10-09T07:40:21.145Z,9.75
2022-10-09T07:42:51.207Z,9.80
2022-10-09T07:45:21.131Z,9.86
2022-10-09T07:47:53.452Z,9.91
2022-10-09T07:50:23.235Z,9.97
2022-10-09T07:52:52.950Z,10.04
2022-10-09T07:55:22.695Z,10.08
2022-10-09T07:57:53.521Z,10.15
2022-10-09T08:00:23.329Z,10.22
2022-10-09T08:02:55.937Z,10.28
2022-10-09T08:05:25.737Z,10.35
2022-10-09T08:07:55.471Z,10.40
2022-10-09T08:10:25.247Z,10.48
2022-10-09T08:12:55.762Z,10.56
2022-10-09T08:15:25.659Z,10.65
2022-10-09T08:17:58.371Z,10.74
2022-10-09T08:20:28.112Z,10.82
2022-10-09T08:22:57.817Z,10.88
2022-10-09T08:25:27.683Z,10.96
2022-10-09T08:27:58.234Z,11.03
2022-10-09T08:30:27.987Z,11.11
2022-10-09T08:33:00.386Z,11.16
2022-10-09T08:35:34.416Z,11.23
2022-10-09T08:38:04.470Z,11.31
2022-10-09T08:40:42.073Z,11.42
2022-10-09T08:43:18.253Z,11.57
2022-10-09T08:45:50.337Z,11.75
2022-10-09T08:48:28.451Z,11.95
2022-10-09T08:51:01.802Z,12.16
2022-10-09T08:53:41.454Z,12.30
2022-10-09T08:56:17.062Z,12.44
2022-10-09T08:58:47.472Z,12.54
2022-10-09T09:01:25.825Z,12.61
2022-10-09T09:04:11.275Z,12.71
2022-10-09T09:06:49.169Z,12.77
2022-10-09T09:09:26.504Z,12.81
2022-10-09T09:12:02.400Z,12.86
2022-10-09T09:14:46.169Z,12.90
2022-10-09T09:17:26.368Z,12.96
2022-10-09T09:20:08.279Z,13.01
2022-10-09T09:22:42.830Z,13.07
2022-10-09T09:25:24.103Z,13.10
2022-10-09T09:27:56.946Z,13.12
2022-10-09T09:30:31.467Z,13.15
2022-10-09T09:33:10.357Z,13.20
2022-10-09T09:35:52.062Z,13.23
2022-10-09T09:38:21.833Z,13.27
2022-10-09T09:40:52.135Z,13.30
2022-10-09T09:43:24.550Z,13.30
2022-10-09T09:45:56.413Z,13.34
2022-10-09T09:48:35.091Z,13.39
2022-10-09T09:51:27.416Z,13.44
2022-10-09T09:54:01.992Z,13.48
2022-10-09T09:57:10.509Z,13.52
2022-10-09T09:59:35.110Z,13.54
2022-10-09T10:02:07.420Z,13.58
2022-10-09T10:04:42.451Z,13.62
2022-10-09T10:07:15.643Z,13.66
2022-10-09T10:09:45.389Z,13.69
2022-10-09T10:12:19.333Z,13.72
2022-10-09T10:14:53.375Z,13.75
2022-10-09T10:17:32.016Z,13.78
2022-10-09T10:20:01.869Z,13.80
2022-10-09T10:22:39.148Z,13.81
2022-10-09T10:25:18.077Z,13.82
2022-10-09T10:27:51.214Z,13.83
2022-10-09T10:30:22.665Z,13.84
2022-10-09T10:32:58.682Z,13.91
2022-10-09T10:35:32.081Z,13.93
2022-10-09T10:38:07.963Z,13.98
2022-10-09T10:40:40.438Z,14.04
2022-10-09T10:43:18.759Z,14.10
2022-10-09T10:45:59.418Z,14.16
2022-10-09T10:48:32.527Z,14.23
2022-10-09T10:51:11.079Z,14.27
2022-10-09T10:54:01.247Z,14.36
2022-10-09T10:56:34.416Z,14.42
2022-10-09T10:59:22.786Z,14.48
2022-10-09T11:02:03.898Z,14.52
2022-10-09T11:04:42.787Z,14.55
2022-10-09T11:07:29.433Z,14.58
2022-10-09T11:10:12.217Z,14.59
2022-10-09T11:12:52.110Z,14.59
2022-10-09T11:15:31.002Z,14.63
2022-10-09T11:18:12.130Z,14.65
2022-10-09T11:20:57.212Z,14.70
2022-10-09T11:23:36.081Z,14.74
2022-10-09T11:26:18.127Z,14.78
2022-10-09T11:28:54.931Z,14.82
2022-10-09T11:31:31.382Z,14.87
2022-10-09T11:34:07.366Z,14.93
2022-10-09T11:36:45.482Z,14.99
2022-10-09T11:39:18.864Z,15.04
2022-10-09T11:41:55.523Z,15.09
2022-10-09T11:44:40.280Z,15.10
2022-10-09T11:47:17.592Z,15.12
2022-10-09T11:50:00.621Z,15.16
2022-10-09T11:52:42.489Z,15.20
2022-10-09T11:55:22.261Z,15.24
2022-10-09T11:57:54.645Z,15.29
2022-10-09T12:00:34.503Z,15.32
2022-10-09T12:03:07.117Z,15.37
2022-10-09T12:05:42.948Z,15.40
2022-10-09T12:08:19.249Z,15.44
2022-10-09T12:10:55.468Z,15.46
2022-10-09T12:13:43.944Z,15.49
2022-10-09T12:16:29.820Z,15.53
2022-10-09T12:19:01.938Z,15.57
2022-10-09T12:21:37.188Z,15.59
2022-10-09T12:24:07.700Z,15.62
2022-10-09T12:26:38.678Z,15.65
2022-10-09T12:29:22.072Z,15.70
2022-10-09T12:31:54.433Z,15.72
2022-10-09T12:34:27.877Z,15.75
2022-10-09T12:37:13.900Z,15.82
2022-10-09T12:39:44.013Z,15.80
2022-10-09T12:42:20.432Z,15.83
2022-10-09T12:44:56.059Z,15.85
2022-10-09T12:47:29.523Z,15.90
2022-10-09T12:50:02.044Z,15.91
2022-10-09T12:52:33.492Z,15.93
2022-10-09T12:55:05.200Z,15.92
2022-10-09T12:57:36.220Z,15.90
2022-10-09T13:00:09.739Z,15.92
2022-10-09T13:02:39.661Z,15.94
2022-10-09T13:05:10.205Z,15.96
2022-10-09T13:07:40.201Z,15.99
2022-10-09T13:10:19.879Z,16.01
2022-10-09T13:12:54.666Z,16.01
2022-10-09T13:15:35.405Z,16.02
2022-10-09T13:18:22.740Z,16.01
2022-10-09T13:21:01.994Z,16.03
2022-10-09T13:23:34.127Z,16.03
2022-10-09T13:26:05.206Z,16.04
2022-10-09T13:28:35.220Z,16.02
2022-10-09T13:31:15.325Z,15.97
2022-10-09T13:33:45.115Z,15.96
2022-10-09T13:36:15.570Z,15.98
2022-10-09T13:38:45.799Z,15.97
2022-10-09T13:41:17.540Z,15.98
2022-10-09T13:43:47.833Z,15.99
2022-10-09T13:46:20.268Z,15.99
2022-10-09T13:48:50.253Z,16.02
2022-10-09T13:51:20.065Z,16.02
2022-10-09T13:53:50.116Z,16.02
2022-10-09T13:56:20.034Z,15.99
2022-10-09T13:58:49.843Z,16.00
2022-10-09T14:01:22.432Z,16.01
2022-10-09T14:03:52.435Z,16.01
2022-10-09T14:06:22.619Z,16.02
2022-10-09T14:08:52.844Z,16.04
2022-10-09T14:11:22.926Z,16.01
2022-10-09T14:13:52.792Z,15.99
2022-10-09T14:16:25.280Z,15.98
2022-10-09T14:18:58.434Z,16.00
2022-10-09T14:21:29.142Z,16.00
2022-10-09T14:24:00.438Z,15.97
2022-10-09T14:26:31.240Z,15.96
2022-10-09T14:29:03.147Z,15.96
2022-10-09T14:31:35.766Z,15.93
2022-10-09T14:34:05.868Z,15.94
2022-10-09T14:36:37.296Z,15.90
2022-10-09T14:39:07.401Z,15.88
2022-10-09T14:41:38.049Z,15.85
2022-10-09T14:44:08.487Z,15.82
2022-10-09T14:46:40.902Z,15.78
2022-10-09T14:49:13.265Z,15.75
2022-10-09T14:51:44.016Z,15.73
2022-10-09T14:54:15.290Z,15.73
2022-10-09T14:56:45.159Z,15.70
2022-10-09T14:59:15.168Z,15.70
2022-10-09T15:01:47.607Z,15.67
2022-10-09T15:04:17.694Z,15.67
2022-10-09T15:06:47.451Z,15.68
2022-10-09T15:09:17.216Z,15.67
2022-10-09T15:11:47.007Z,15.65
2022-10-09T15:14:16.730Z,15.65
2022-10-09T15:16:49.024Z,15.65
2022-10-09T15:19:18.733Z,15.64
2022-10-09T15:21:48.488Z,15.62
2022-10-09T15:24:18.178Z,15.57
2022-10-09T15:26:47.892Z,15.56
2022-10-09T15:29:17.678Z,15.57
2022-10-09T15:31:52.932Z,15.55
2022-10-09T15:34:23.082Z,15.53
2022-10-09T15:36:52.783Z,15.50
2022-10-09T15:39:23.747Z,15.48
2022-10-09T15:41:53.546Z,15.43
2022-10-09T15:44:23.860Z,15.41
2022-10-09T15:46:56.193Z,15.36
2022-10-09T15:49:25.912Z,15.33
2022-10-09T15:51:55.733Z,15.28
2022-10-09T15:54:25.582Z,15.25
2022-10-09T15:56:55.336Z,15.21
2022-10-09T15:59:25.890Z,15.19
2022-10-09T16:01:58.442Z,15.17
2022-10-09T16:04:28.204Z,15.12
2022-10-09T16:06:58.267Z,15.10
2022-10-09T16:09:27.962Z,15.07
2022-10-09T16:11:57.670Z,15.03
2022-10-09T16:14:30.228Z,14.99
2022-10-09T16:17:03.921Z,14.96
2022-10-09T16:19:34.383Z,14.94
2022-10-09T16:22:05.278Z,14.88
2022-10-09T16:24:35.121Z,14.86
2022-10-09T16:27:04.888Z,14.84
2022-10-09T16:29:34.620Z,14.78
2022-10-09T16:32:07.052Z,14.74
2022-10-09T16:34:36.782Z,14.70
2022-10-09T16:37:06.589Z,14.67
2022-10-09T16:39:36.539Z,14.61
2022-10-09T16:42:06.807Z,14.59
2022-10-09T16:44:36.553Z,14.56
2022-10-09T16:47:08.986Z,14.54
2022-10-09T16:49:38.717Z,14.49
2022-10-09T16:52:08.482Z,14.44
2022-10-09T16:54:39.099Z,14.40
2022-10-09T16:57:08.856Z,14.34
2022-10-09T16:59:38.741Z,14.31
2022-10-09T17:02:13.293Z,14.24
2022-10-09T17:04:43.622Z,14.19
2022-10-09T17:07:14.242Z,14.14
2022-10-09T17:09:44.034Z,14.07
2022-10-09T17:12:13.948Z,14.01
2022-10-09T17:14:43.896Z,13.94
2022-10-09T17:17:16.574Z,13.91
2022-10-09T17:19:46.345Z,13.85
2022-10-09T17:22:16.123Z,13.80
2022-10-09T17:24:46.082Z,13.74
2022-10-09T17:27:15.904Z,13.70
2022-10-09T17:29:45.965Z,13.66
2022-10-09T17:32:18.485Z,13.61
2022-10-09T17:34:48.429Z,13.57
2022-10-09T17:37:18.163Z,13.52
2022-10-09T17:39:52.040Z,13.46
2022-10-09T17:42:22.220Z,13.36
2022-10-09T17:44:51.957Z,13.32
2022-10-09T17:47:24.405Z,13.27
2022-10-09T17:49:54.850Z,13.21
2022-10-09T17:52:24.650Z,13.18
2022-10-09T17:54:54.609Z,13.14
2022-10-09T17:57:24.411Z,13.10
2022-10-09T17:59:54.516Z,13.05
2022-10-09T18:02:27.043Z,12.99
2022-10-09T18:04:58.276Z,12.95
2022-10-09T18:07:28.384Z,12.90
2022-10-09T18:09:58.267Z,12.84
2022-10-09T18:12:28.067Z,12.79
2022-10-09T18:14:59.420Z,12.74
2022-10-09T18:17:33.647Z,12.69
2022-10-09T18:20:03.550Z,12.63
2022-10-09T18:22:33.345Z,12.59
2022-10-09T18:25:03.164Z,12.55
2022-10-09T18:27:32.990Z,12.50
2022-10-09T18:30:02.896Z,12.45
2022-10-09T18:32:35.413Z,12.40
2022-10-09T18:35:05.238Z,12.37
2022-10-09T18:37:35.168Z,12.31
2022-10-09T18:40:05.054Z,12.28
2022-10-09T18:42:34.957Z,12.25
2022-10-09T18:45:05.504Z,12.21
2022-10-09T18:47:38.844Z,12.16
2022-10-09T18:50:12.188Z,12.09
2022-10-09T18:52:44.380Z,12.06
2022-10-09T18:55:17.731Z,12.02
2022-10-09T18:57:49.013Z,11.98
2022-10-09T19:00:19.780Z,11.95
2022-10-09T19:02:52.352Z,11.91
2022-10-09T19:05:22.374Z,11.84
2022-10-09T19:07:52.600Z,11.82
2022-10-09T19:10:22.676Z,11.77
2022-10-09T19:12:52.747Z,11.73
2022-10-09T19:15:22.717Z,11.69
2022-10-09T19:17:55.252Z,11.63
2022-10-09T19:20:25.124Z,11.60
2022-10-09T19:22:55.086Z,11.58
2022-10-09T19:25:25.548Z,11.58
2022-10-09T19:27:55.380Z,11.55
2022-10-09T19:30:25.258Z,11.53
2022-10-09T19:32:57.881Z,11.51
2022-10-09T19:35:27.635Z,11.48
2022-10-09T19:37:59.221Z,11.49
2022-10-09T19:40:28.984Z,11.46
2022-10-09T19:42:58.679Z,11.45
2022-10-09T19:45:28.412Z,11.44
2022-10-09T19:48:01.093Z,11.42
2022-10-09T19:50:31.196Z,11.41
2022-10-09T19:53:04.380Z,11.37
2022-10-09T19:55:35.524Z,11.35
2022-10-09T19:58:06.826Z,11.32
2022-10-09T20:00:36.904Z,11.29
2022-10-09T20:03:09.306Z,11.25
2022-10-09T20:05:39.142Z,11.24
2022-10-09T20:08:09.248Z,11.22
2022-10-09T20:10:41.658Z,11.20
2022-10-09T20:13:11.365Z,11.17
2022-10-09T20:15:44.831Z,11.14
2022-10-09T20:18:17.162Z,11.12
2022-10-09T20:20:49.911Z,11.04
2022-10-09T20:23:19.612Z,10.99
2022-10-09T20:25:50.202Z,10.96
2022-10-09T20:28:20.024Z,10.94
2022-10-09T20:30:58.605Z,10.92
2022-10-09T20:33:31.150Z,10.91
2022-10-09T20:36:00.856Z,10.88
2022-10-09T20:38:30.875Z,10.86
2022-10-09T20:41:06.758Z,10.82
2022-10-09T20:43:36.546Z,10.79
2022-10-09T20:46:09.245Z,10.76
2022-10-09T20:48:41.606Z,10.72
2022-10-09T20:51:11.464Z,10.69
2022-10-09T20:53:41.366Z,10.67
2022-10-09T20:56:12.831Z,10.64
2022-10-09T20:58:42.956Z,10.60
2022-10-09T21:01:16.321Z,10.57
2022-10-09T21:03:48.697Z,10.55
2022-10-09T21:06:20.116Z,10.53
2022-10-09T21:08:50.319Z,10.50
2022-10-09T21:11:21.690Z,10.50
2022-10-09T21:13:52.413Z,10.49
2022-10-09T21:16:23.534Z,10.48
2022-10-09T21:19:00.469Z,10.47
2022-10-09T21:21:31.656Z,10.48
2022-10-09T21:24:02.610Z,10.48
2022-10-09T21:26:35.647Z,10.44
2022-10-09T21:29:06.889Z,10.42
2022-10-09T21:31:37.152Z,10.40
2022-10-09T21:34:09.481Z,10.39
2022-10-09T21:37:02.284Z,10.38
2022-10-09T21:39:33.507Z,10.38
2022-10-09T21:42:03.262Z,10.37
2022-10-09T21:44:33.003Z,10.37
2022-10-09T21:47:02.879Z,10.35
2022-10-09T21:49:35.212Z,10.34
2022-10-09T21:52:04.934Z,10.31
2022-10-09T21:54:34.644Z,10.33
2022-10-09T21:57:04.430Z,10.33
2022-10-09T21:59:34.182Z,10.33
2022-10-09T22:02:03.925Z,10.33
2022-10-09T22:04:36.540Z,10.32
2022-10-09T22:07:06.266Z,10.31
2022-10-09T22:09:35.981Z,10.31
2022-10-09T22:12:05.754Z,10.31
2022-10-09T22:14:35.476Z,10.30
2022-10-09T22:17:05.186Z,10.28
2022-10-09T22:19:37.555Z,10.28
2022-10-09T22:22:07.270Z,10.26
2022-10-09T22:24:37.002Z,10.24
2022-10-09T22:27:07.489Z,10.24
2022-10-09T22:29:38.355Z,10.25
2022-10-09T22:32:08.941Z,10.26
2022-10-09T22:34:41.313Z,10.25
2022-10-09T22:37:11.043Z,10.26
2022-10-09T22:39:40.766Z,10.26
2022-10-09T22:42:10.484Z,10.25
2022-10-09T22:44:40.485Z,10.26
2022-10-09T22:47:10.303Z,10.26
2022-10-09T22:49:42.713Z,10.28
2022-10-09T22:52:12.460Z,10.30
2022-10-09T22:54:42.193Z,10.32
2022-10-09T22:57:11.926Z,10.33
2022-10-09T22:59:41.628Z,10.32
2022-10-09T23:02:11.504Z,10.32
2022-10-09T23:04:43.854Z,10.33
2022-10-09T23:07:13.694Z,10.32
2022-10-09T23:09:43.826Z,10.30
2022-10-09T23:12:13.550Z,10.32
2022-10-09T23:14:43.562Z,10.33
2022-10-09T23:17:13.314Z,10.32
2022-10-09T23:19:45.696Z,10.34
2022-10-09T23:22:15.377Z,10.33
2022-10-09T23:24:45.233Z,10.33
2022-10-09T23:27:14.972Z,10.31
2022-10-09T23:29:44.663Z,10.30
2022-10-09T23:32:14.392Z,10.28
2022-10-09T23:34:46.906Z,10.27
2022-10-09T23:37:16.627Z,10.25
2022-10-09T23:39:46.334Z,10.23
2022-10-09T23:42:16.046Z,10.22
2022-10-09T23:44:45.752Z,10.22
2022-10-09T23:47:15.495Z,10.20
2022-10-09T23:49:47.786Z,10.18
2022-10-09T23:52:17.504Z,10.17
2022-10-09T23:54:47.201Z,10.18
2022-10-09T23:57:16.910Z,10.16
2022-10-09T23:59:46.831Z,10.18
